createdAt,value
2023-01-05T00:00:47.539Z,86.24
2023-01-05T00:04:46.274Z,86.54
2023-01-05T00:08:33.055Z,87.08
2023-01-05T00:12:19.698Z,87.29
2023-01-05T00:16:05.391Z,87.47
2023-01-05T00:19:48.407Z,87.38
2023-01-05T00:23:32.029Z,87.49
2023-01-05T00:27:17.571Z,87.42
2023-01-05T00:30:44.385Z,87.79
2023-01-05T00:34:18.360Z,87.72
2023-01-05T00:37:56.116Z,87.78
2023-01-05T00:41:52.724Z,88.02
2023-01-05T00:45:35.257Z,88.05
2023-01-05T00:49:18.622Z,87.77
2023-01-05T00:53:02.226Z,87.83
2023-01-05T00:56:48.512Z,87.96
2023-01-05T01:00:17.198Z,88.01
2023-01-05T01:04:09.343Z,87.97
2023-01-05T01:07:35.886Z,87.82
2023-01-05T01:11:12.566Z,87.83
2023-01-05T01:15:10.111Z,87.80
2023-01-05T01:18:53.757Z,88.13
2023-01-05T01:22:37.619Z,88.47
2023-01-05T01:26:10.230Z,88.57
2023-01-05T01:29:40.732Z,88.70
2023-01-05T01:33:39.284Z,89.04
2023-01-05T01:37:05.601Z,89.18
2023-01-05T01:41:02.107Z,89.53
2023-01-05T01:44:50.599Z,89.89
2023-01-05T01:48:19.068Z,89.82
2023-01-05T01:51:56.588Z,90.24
2023-01-05T01:55:36.371Z,90.60
2023-01-05T01:59:14.282Z,91.50
2023-01-05T02:02:54.755Z,91.17
2023-01-05T02:06:26.794Z,90.89
2023-01-05T02:11:01.986Z,91.27
2023-01-05T02:15:11.140Z,91.58
2023-01-05T02:19:51.413Z,91.94
2023-01-05T02:23:24.785Z,92.05
2023-01-05T02:27:17.391Z,92.06
2023-01-05T02:31:01.435Z,92.06
2023-01-05T02:35:33.225Z,92.08
2023-01-05T02:39:12.141Z,92.28
2023-01-05T02:42:41.531Z,92.13
2023-01-05T02:46:15.966Z,92.17
2023-01-05T02:50:19.662Z,92.20
2023-01-05T02:53:49.921Z,92.21
2023-01-05T02:57:47.938Z,92.06
2023-01-05T03:01:29.985Z,91.98
2023-01-05T03:05:38.681Z,92.08
2023-01-05T03:09:08.188Z,92.03
2023-01-05T03:12:59.073Z,92.05
2023-01-05T03:16:37.253Z,92.10
2023-01-05T03:20:26.102Z,92.07
2023-01-05T03:24:32.399Z,92.09
2023-01-05T03:28:16.651Z,91.98
2023-01-05T03:32:20.854Z,92.01
2023-01-05T03:35:52.640Z,92.08
2023-01-05T03:39:43.376Z,92.06
2023-01-05T03:43:17.705Z,92.18
2023-01-05T03:46:54.929Z,92.40
2023-01-05T03:50:32.423Z,92.31
2023-01-05T03:54:10.773Z,92.47
2023-01-05T03:57:48.087Z,92.47
2023-01-05T04:01:24.477Z,92.67
2023-01-05T04:05:03.941Z,92.66
2023-01-05T04:08:59.785Z,92.50
2023-01-05T04:12:42.340Z,92.68
2023-01-05T04:16:31.477Z,92.65
2023-01-05T04:20:20.354Z,92.74
2023-01-05T04:23:46.994Z,92.60
2023-01-05T04:27:23.403Z,92.66
2023-01-05T04:31:19.825Z,92.31
2023-01-05T04:34:46.538Z,92.34
2023-01-05T04:38:22.849Z,92.55
2023-01-05T04:42:19.748Z,92.59
2023-01-05T04:46:08.561Z,92.91
2023-01-05T04:49:34.632Z,92.87
2023-01-05T04:53:29.588Z,92.91
2023-01-05T04:57:11.791Z,92.94
2023-01-05T05:00:37.471Z,92.75
2023-01-05T05:04:32.942Z,92.80
2023-01-05T05:07:58.240Z,92.79
2023-01-05T05:11:53.400Z,92.84
2023-01-05T05:15:39.888Z,92.79
2023-01-05T05:19:06.796Z,92.62
2023-01-05T05:22:44.227Z,92.87
2023-01-05T05:26:39.500Z,92.73
2023-01-05T05:30:03.324Z,92.51
2023-01-05T05:33:42.205Z,92.65
2023-01-05T05:37:18.867Z,92.75
2023-01-05T05:40:56.399Z,93.02
2023-01-05T05:44:35.246Z,92.97
2023-01-05T05:48:11.404Z,92.95
2023-01-05T05:51:50.223Z,93.02
2023-01-05T05:55:26.841Z,93.02
2023-01-05T05:59:06.544Z,92.88
2023-01-05T06:02:42.365Z,92.98
2023-01-05T06:06:40.307Z,93.20
2023-01-05T06:10:03.890Z,92.94
2023-01-05T06:13:42.434Z,93.31
2023-01-05T06:17:38.958Z,93.48
2023-01-05T06:21:22.594Z,93.53
2023-01-05T06:25:06.906Z,93.63
2023-01-05T06:28:56.020Z,93.74
2023-01-05T06:32:21.267Z,93.75
2023-01-05T06:35:59.300Z,93.65
2023-01-05T06:39:36.856Z,93.52
2023-01-05T06:43:13.383Z,93.45
2023-01-05T06:46:52.911Z,93.37
2023-01-05T06:50:29.060Z,93.27
2023-01-05T06:54:06.988Z,93.19
2023-01-05T06:57:45.101Z,93.29
2023-01-05T07:01:21.973Z,93.22
2023-01-05T07:04:59.243Z,93.39
2023-01-05T07:08:38.262Z,93.52
2023-01-05T07:12:35.517Z,93.46
2023-01-05T07:15:59.863Z,93.68
2023-01-05T07:19:38.834Z,93.83
2023-01-05T07:23:15.123Z,93.85
2023-01-05T07:26:56.320Z,93.89
2023-01-05T07:30:30.310Z,93.95
2023-01-05T07:34:09.946Z,93.99
2023-01-05T07:38:06.272Z,94.22
2023-01-05T07:41:50.557Z,94.22
2023-01-05T07:45:14.159Z,94.10
2023-01-05T07:49:10.993Z,94.01
2023-01-05T07:52:53.948Z,94.13
2023-01-05T07:56:19.511Z,94.23
2023-01-05T07:59:57.398Z,94.00
2023-01-05T08:03:36.015Z,94.08
2023-01-05T08:07:30.173Z,94.14
2023-01-05T08:11:15.692Z,94.13
2023-01-05T08:14:39.039Z,94.36
2023-01-05T08:18:19.617Z,94.32
2023-01-05T08:21:54.484Z,94.38
2023-01-05T08:25:32.006Z,94.36
2023-01-05T08:29:28.833Z,94.63
2023-01-05T08:32:52.063Z,94.65
2023-01-05T08:36:34.646Z,94.55
2023-01-05T08:40:27.888Z,94.54
2023-01-05T08:43:55.533Z,94.48
2023-01-05T08:47:30.076Z,94.33
2023-01-05T08:51:07.722Z,93.99
2023-01-05T08:55:07.286Z,94.11
2023-01-05T08:58:31.272Z,94.06
2023-01-05T09:02:12.393Z,94.22
2023-01-05T09:05:46.398Z,94.10
2023-01-05T09:09:24.569Z,94.01
2023-01-05T09:13:20.483Z,93.81
2023-01-05T09:20:37.753Z,93.88
2023-01-05T09:24:16.011Z,94.01
2023-01-05T09:27:50.620Z,93.75
2023-01-05T09:31:25.110Z,93.51
2023-01-05T09:35:24.739Z,93.69
2023-01-05T09:38:58.020Z,93.79
2023-01-05T09:42:32.381Z,93.90
2023-01-05T09:46:09.249Z,94.12
2023-01-05T09:49:42.016Z,93.95
2023-01-05T09:53:28.382Z,93.74
2023-01-05T09:57:09.142Z,93.51
2023-01-05T10:00:42.194Z,93.67
2023-01-05T10:04:28.388Z,93.68
2023-01-05T10:08:16.417Z,93.63
2023-01-05T10:12:10.331Z,93.52
2023-01-05T10:15:54.820Z,93.76
2023-01-05T10:19:39.465Z,93.81
2023-01-05T10:23:41.785Z,93.45
2023-01-05T10:27:26.374Z,93.12
2023-01-05T10:31:01.899Z,92.84
2023-01-05T10:34:50.165Z,92.62
2023-01-05T10:38:26.107Z,92.67
2023-01-05T10:42:18.883Z,92.71
2023-01-05T10:46:11.226Z,92.35
2023-01-05T10:49:49.277Z,91.60
2023-01-05T10:53:36.343Z,91.19
2023-01-05T10:57:48.623Z,91.27
2023-01-05T11:01:33.291Z,90.57
2023-01-05T11:05:31.710Z,90.44
2023-01-05T11:09:24.762Z,90.33
2023-01-05T11:12:55.927Z,90.54
2023-01-05T11:16:30.895Z,90.36
2023-01-05T11:20:22.678Z,90.37
2023-01-05T11:23:54.931Z,90.85
2023-01-05T11:27:25.170Z,90.84
2023-01-05T11:31:07.023Z,90.81
2023-01-05T11:34:49.813Z,90.56
2023-01-05T11:38:28.759Z,91.06
2023-01-05T11:42:25.950Z,90.94
2023-01-05T11:45:56.934Z,90.51
2023-01-05T11:49:31.499Z,89.80
2023-01-05T11:53:06.372Z,88.74
2023-01-05T11:56:45.244Z,88.25
2023-01-05T12:00:43.107Z,87.17
2023-01-05T12:05:00.714Z,86.04
2023-01-05T12:08:36.710Z,85.91
2023-01-05T12:13:03.466Z,85.85
2023-01-05T12:16:30.174Z,86.17
2023-01-05T12:20:45.170Z,85.85
2023-01-05T12:24:51.205Z,85.07
2023-01-05T12:28:42.462Z,84.78
2023-01-05T12:36:41.762Z,84.23
2023-01-05T12:40:40.064Z,85.44
2023-01-05T12:44:14.710Z,86.01
2023-01-05T12:48:18.415Z,85.42
2023-01-05T12:52:06.833Z,85.39
2023-01-05T12:55:39.558Z,85.28
2023-01-05T12:59:32.484Z,85.36
2023-01-05T13:03:01.904Z,85.51
2023-01-05T13:06:59.154Z,85.57
2023-01-05T13:11:04.996Z,85.54
2023-01-05T13:15:04.747Z,85.74
2023-01-05T13:18:33.557Z,86.28
2023-01-05T13:22:32.761Z,85.88
2023-01-05T13:26:17.728Z,86.11
2023-01-05T13:29:48.976Z,86.13
2023-01-05T13:34:02.857Z,86.07
2023-01-05T13:41:34.604Z,86.53
2023-01-05T13:45:54.836Z,86.84
2023-01-05T13:49:43.402Z,86.95
2023-01-05T13:53:14.059Z,87.05
2023-01-05T13:56:48.741Z,87.48
2023-01-05T14:00:31.284Z,87.57
2023-01-05T14:04:02.201Z,87.48
2023-01-05T14:07:41.284Z,87.61
2023-01-05T14:11:38.795Z,87.76
2023-01-05T14:15:37.934Z,88.35
2023-01-05T14:19:25.269Z,88.27
2023-01-05T14:22:51.001Z,88.10
2023-01-05T14:27:08.275Z,87.87
2023-01-05T14:30:34.135Z,87.99
2023-01-05T14:34:15.129Z,88.26
2023-01-05T14:38:14.099Z,88.07
2023-01-05T14:41:40.777Z,87.92
2023-01-05T14:45:30.316Z,88.01
2023-01-05T14:49:07.694Z,88.20
2023-01-05T14:53:02.051Z,88.40
2023-01-05T14:56:33.655Z,88.42
2023-01-05T15:00:11.750Z,88.55
2023-01-05T15:04:05.483Z,88.65
2023-01-05T15:07:54.121Z,88.58
2023-01-05T15:11:37.356Z,88.54
2023-01-05T15:15:29.766Z,88.39
2023-01-05T15:19:38.602Z,88.34
2023-01-05T15:23:24.716Z,88.32
2023-01-05T15:27:13.074Z,88.42
2023-01-05T15:31:23.416Z,88.40
2023-01-05T15:35:26.584Z,88.55
2023-01-05T15:38:55.523Z,88.64
2023-01-05T15:42:53.341Z,88.64
2023-01-05T15:46:24.372Z,88.28
2023-01-05T15:49:59.374Z,88.35
2023-01-05T15:53:35.616Z,88.32
2023-01-05T15:57:22.293Z,87.25
2023-01-05T16:01:12.981Z,86.65
2023-01-05T16:04:37.090Z,86.24
2023-01-05T16:08:18.143Z,86.17
2023-01-05T16:11:59.605Z,85.75
2023-01-05T16:15:32.994Z,84.98
2023-01-05T16:19:33.041Z,84.68
2023-01-05T16:23:29.195Z,84.01
2023-01-05T16:26:53.232Z,83.77
2023-01-05T16:30:54.071Z,83.88
2023-01-05T16:34:21.793Z,83.68
2023-01-05T16:38:21.581Z,83.55
2023-01-05T16:42:22.891Z,82.95
2023-01-05T16:45:49.297Z,83.30
2023-01-05T16:49:53.489Z,84.00
2023-01-05T16:53:24.551Z,84.92
2023-01-05T16:57:02.324Z,85.21
2023-01-05T17:00:38.713Z,85.04
2023-01-05T17:04:20.192Z,84.59
2023-01-05T17:08:07.317Z,84.63
2023-01-05T17:11:37.453Z,84.42
2023-01-05T17:15:21.079Z,84.23
2023-01-05T17:19:12.385Z,84.08
2023-01-05T17:22:56.008Z,84.12
2023-01-05T17:26:38.399Z,84.00
2023-01-05T17:30:22.595Z,84.15
2023-01-05T17:34:06.903Z,84.29
2023-01-05T17:37:32.024Z,84.31
2023-01-05T17:41:16.100Z,83.61
2023-01-05T17:44:46.196Z,83.68
2023-01-05T17:48:43.788Z,83.77
2023-01-05T17:52:08.313Z,83.50
2023-01-05T17:56:06.967Z,83.36
2023-01-05T17:59:49.058Z,83.67
2023-01-05T18:03:15.856Z,84.27
2023-01-05T18:06:50.175Z,84.64
2023-01-05T18:10:30.409Z,84.98
2023-01-05T18:14:27.949Z,85.01
2023-01-05T18:17:52.600Z,84.87
2023-01-05T18:21:29.039Z,84.92
2023-01-05T18:25:08.984Z,85.09
2023-01-05T18:28:44.756Z,85.29
2023-01-05T18:32:25.651Z,85.29
2023-01-05T18:36:08.274Z,85.19
2023-01-05T18:39:59.663Z,85.05
2023-01-05T18:43:31.265Z,84.13
2023-01-05T18:47:03.701Z,83.70
2023-01-05T18:50:46.343Z,83.25
2023-01-05T18:54:22.883Z,82.64
2023-01-05T18:57:55.375Z,81.28
2023-01-05T19:01:51.878Z,81.67
2023-01-05T19:05:15.997Z,81.40
2023-01-05T19:08:52.912Z,81.08
2023-01-05T19:12:49.642Z,80.03
2023-01-05T19:16:15.171Z,79.96
2023-01-05T19:19:52.165Z,79.97
2023-01-05T19:23:28.752Z,80.10
2023-01-05T19:27:10.215Z,80.02
2023-01-05T19:31:05.112Z,79.93
2023-01-05T19:34:31.937Z,80.38
2023-01-05T19:38:30.164Z,80.74
2023-01-05T19:41:55.512Z,80.29
2023-01-05T19:45:31.335Z,79.72
2023-01-05T19:49:27.941Z,78.97
2023-01-05T19:53:10.363Z,78.37
2023-01-05T19:56:35.202Z,78.02
2023-01-05T20:00:13.825Z,78.11
2023-01-05T20:04:08.396Z,77.97
2023-01-05T20:07:40.173Z,77.75
2023-01-05T20:11:13.848Z,77.39
2023-01-05T20:14:50.948Z,77.21
2023-01-05T20:18:29.028Z,77.65
2023-01-05T20:22:13.606Z,77.24
2023-01-05T20:25:43.641Z,77.64
2023-01-05T20:29:40.873Z,77.80
2023-01-05T20:33:06.526Z,78.01
2023-01-05T20:36:43.190Z,77.75
2023-01-05T20:40:38.702Z,77.84
2023-01-05T20:44:02.639Z,77.83
2023-01-05T20:47:47.373Z,77.66
2023-01-05T20:51:18.857Z,77.47
2023-01-05T20:54:55.941Z,77.68
2023-01-05T20:58:53.813Z,77.54
2023-01-05T21:02:24.459Z,77.80
2023-01-05T21:05:59.817Z,78.36
2023-01-05T21:09:33.812Z,78.38
2023-01-05T21:13:31.840Z,78.03
2023-01-05T21:16:55.754Z,77.99
2023-01-05T21:20:34.239Z,78.06
2023-01-05T21:24:35.102Z,78.25
2023-01-05T21:28:03.121Z,78.24
2023-01-05T21:31:38.351Z,78.26
2023-01-05T21:35:17.039Z,78.45
2023-01-05T21:39:23.032Z,78.17
2023-01-05T21:42:50.625Z,77.95
2023-01-05T21:46:46.180Z,77.97
2023-01-05T21:50:47.049Z,78.13
2023-01-05T21:54:30.524Z,78.24
2023-01-05T21:57:56.865Z,78.10
2023-01-05T22:01:32.958Z,77.97
2023-01-05T22:05:11.205Z,77.80
2023-01-05T22:09:08.098Z,77.93
2023-01-05T22:12:50.313Z,77.65
2023-01-05T22:16:15.305Z,77.54
2023-01-05T22:19:53.406Z,77.85
2023-01-05T22:23:31.829Z,77.85
2023-01-05T22:27:25.617Z,77.69
2023-01-05T22:31:14.178Z,77.39
2023-01-05T22:34:58.018Z,77.24
2023-01-05T22:38:21.350Z,77.28
2023-01-05T22:42:19.491Z,77.42
2023-01-05T22:45:43.874Z,77.08
2023-01-05T22:49:40.030Z,77.03
2023-01-05T22:53:22.105Z,77.43
2023-01-05T22:57:04.815Z,77.40
2023-01-05T23:00:30.126Z,77.48
2023-01-05T23:04:12.381Z,77.11
2023-01-05T23:08:02.899Z,77.18
2023-01-05T23:11:46.585Z,77.25
2023-01-05T23:15:32.370Z,77.37
2023-01-05T23:19:16.419Z,77.38
2023-01-05T23:23:01.761Z,77.62
2023-01-05T23:26:45.143Z,77.57
2023-01-05T23:30:27.551Z,77.97
2023-01-05T23:34:10.772Z,77.88
2023-01-05T23:37:55.180Z,77.74
2023-01-05T23:41:22.241Z,78.01
2023-01-05T23:44:58.768Z,78.22
2023-01-05T23:48:55.445Z,78.01
2023-01-05T23:52:18.680Z,78.39
2023-01-05T23:56:18.810Z,78.24
2023-01-05T23:59:44.709Z,78.39
